createdAt,value
2023-01-12T00:02:36.833Z,52.09
2023-01-12T00:07:39.008Z,51.32
2023-01-12T00:12:41.143Z,51.98
2023-01-12T00:17:43.195Z,51.88
2023-01-12T00:22:49.953Z,52.21
2023-01-12T00:27:52.023Z,51.90
2023-01-12T00:38:19.730Z,52.29
2023-01-12T00:43:40.158Z,52.85
2023-01-12T00:48:42.366Z,52.65
2023-01-12T00:53:44.428Z,52.48
2023-01-12T00:58:47.467Z,52.13
2023-01-12T01:03:49.625Z,52.43
2023-01-12T01:08:52.032Z,52.20
2023-01-12T01:13:54.941Z,52.58
2023-01-12T01:18:58.565Z,52.29
2023-01-12T01:24:01.064Z,52.23
2023-01-12T01:29:03.229Z,52.09
2023-01-12T01:34:05.358Z,52.05
2023-01-12T01:39:07.517Z,52.25
2023-01-12T01:44:31.279Z,52.06
2023-01-12T01:49:51.923Z,51.59
2023-01-12T01:54:59.799Z,52.00
2023-01-12T02:00:06.327Z,51.21
2023-01-12T02:05:09.601Z,51.42
2023-01-12T02:10:11.913Z,51.48
2023-01-12T02:15:52.471Z,51.82
2023-01-12T02:21:21.146Z,51.78
2023-01-12T02:26:44.701Z,51.38
2023-01-12T02:32:29.243Z,51.58
2023-01-12T02:38:02.219Z,52.00
2023-01-12T02:43:40.520Z,51.87
2023-01-12T02:49:07.897Z,51.79
2023-01-12T02:54:17.436Z,51.61
2023-01-12T02:59:25.092Z,52.45
2023-01-12T03:04:28.558Z,52.13
2023-01-12T03:09:44.359Z,52.50
2023-01-12T03:14:49.446Z,52.34
2023-01-12T03:19:55.123Z,52.63
2023-01-12T03:25:02.603Z,52.44
2023-01-12T03:30:11.340Z,52.23
2023-01-12T03:35:14.219Z,52.42
2023-01-12T03:40:23.606Z,52.50
2023-01-12T03:45:45.920Z,52.45
2023-01-12T03:50:53.698Z,52.45
2023-01-12T03:56:00.031Z,52.36
2023-01-12T04:01:03.703Z,52.07
2023-01-12T04:06:06.184Z,52.43
2023-01-12T04:11:27.530Z,52.62
2023-01-12T04:16:29.802Z,52.49
2023-01-12T04:21:50.297Z,52.05
2023-01-12T04:26:52.619Z,52.02
2023-01-12T04:31:54.841Z,52.57
2023-01-12T04:36:57.096Z,52.79
2023-01-12T04:41:59.214Z,52.60
2023-01-12T04:47:01.272Z,53.07
2023-01-12T04:52:03.463Z,52.94
2023-01-12T04:57:05.519Z,53.44
2023-01-12T05:02:07.699Z,53.08
2023-01-12T05:07:09.797Z,53.15
2023-01-12T05:12:12.024Z,53.04
2023-01-12T05:17:14.067Z,53.36
2023-01-12T05:22:16.603Z,53.89
2023-01-12T05:27:19.000Z,53.62
2023-01-12T05:32:21.119Z,53.28
2023-01-12T05:37:23.200Z,53.55
2023-01-12T05:42:43.596Z,53.88
2023-01-12T05:47:45.863Z,53.33
2023-01-12T05:52:52.137Z,53.80
2023-01-12T05:57:54.319Z,54.75
2023-01-12T06:02:56.653Z,54.83
2023-01-12T06:07:59.654Z,53.97
2023-01-12T06:13:20.221Z,53.82
2023-01-12T06:18:23.259Z,52.99
2023-01-12T06:23:35.334Z,52.75
2023-01-12T06:28:39.654Z,52.98
2023-01-12T06:33:42.363Z,52.64
2023-01-12T06:38:44.510Z,52.39
2023-01-12T06:43:46.961Z,53.19
2023-01-12T06:48:49.125Z,52.75
2023-01-12T06:53:51.473Z,52.76
2023-01-12T06:58:53.582Z,52.33
2023-01-12T07:03:55.760Z,52.39
2023-01-12T07:08:57.887Z,52.24
2023-01-12T07:14:00.145Z,51.99
2023-01-12T07:19:02.393Z,52.08
2023-01-12T07:24:04.564Z,52.18
2023-01-12T07:29:06.770Z,51.96
2023-01-12T07:34:08.934Z,52.23
2023-01-12T07:39:13.256Z,52.37
2023-01-12T07:44:15.343Z,51.53
2023-01-12T07:49:17.507Z,51.41
2023-01-12T07:54:19.649Z,50.15
2023-01-12T07:59:21.714Z,50.44
2023-01-12T08:04:23.869Z,49.82
2023-01-12T08:09:26.630Z,49.31
2023-01-12T08:14:33.983Z,48.15
2023-01-12T08:19:45.800Z,47.23
2023-01-12T08:24:56.998Z,46.77
2023-01-12T08:30:00.435Z,46.73
2023-01-12T08:35:04.475Z,46.64
2023-01-12T08:40:07.867Z,46.07
2023-01-12T08:45:10.498Z,45.85
2023-01-12T08:50:12.837Z,45.70
2023-01-12T08:55:14.952Z,45.01
2023-01-12T09:00:17.865Z,45.31
2023-01-12T09:05:20.073Z,45.35
2023-01-12T09:10:22.159Z,46.33
2023-01-12T09:15:24.324Z,46.62
2023-01-12T09:20:26.525Z,46.52
2023-01-12T09:25:28.601Z,45.83
2023-01-12T09:30:30.737Z,46.05
2023-01-12T09:35:32.821Z,46.19
2023-01-12T09:40:35.930Z,46.03
2023-01-12T12:40:10.731Z,43.69
2023-01-12T12:45:21.787Z,43.05
2023-01-12T12:50:44.469Z,42.60
2023-01-12T12:55:49.216Z,42.13
2023-01-12T13:00:53.368Z,42.52
2023-01-12T13:06:16.667Z,42.32
2023-01-12T13:11:20.376Z,41.40
2023-01-12T13:16:22.493Z,41.17
2023-01-12T13:21:27.696Z,41.11
2023-01-12T13:26:35.724Z,41.21
2023-01-12T13:31:37.918Z,40.78
2023-01-12T13:36:40.139Z,41.62
2023-01-12T13:42:02.102Z,41.65
2023-01-12T13:47:16.917Z,43.14
2023-01-12T13:52:34.409Z,43.27
2023-01-12T13:57:36.621Z,44.29
2023-01-12T14:02:40.765Z,45.10
2023-01-12T14:07:58.931Z,45.24
2023-01-12T14:13:10.720Z,45.18
2023-01-12T14:18:28.218Z,45.19
2023-01-12T14:23:33.845Z,45.79
2023-01-12T14:28:37.153Z,45.75
2023-01-12T14:33:41.254Z,45.88
2023-01-12T14:38:44.752Z,45.72
2023-01-12T14:44:05.488Z,45.47
2023-01-12T14:49:31.161Z,45.28
2023-01-12T14:54:34.662Z,45.55
2023-01-12T14:59:44.005Z,45.70
2023-01-12T15:04:59.743Z,46.21
2023-01-12T15:10:24.627Z,46.17
2023-01-12T15:15:49.513Z,46.18
2023-01-12T15:21:10.062Z,46.50
2023-01-12T15:26:12.188Z,46.63
2023-01-12T15:31:25.586Z,47.10
2023-01-12T15:36:28.080Z,47.14
2023-01-12T15:41:50.593Z,47.51
2023-01-12T15:46:53.506Z,48.47
2023-01-12T15:51:55.798Z,48.73
2023-01-12T15:56:59.936Z,49.29
2023-01-12T16:02:02.372Z,49.63
2023-01-12T16:07:05.612Z,49.29
2023-01-12T16:12:08.267Z,49.80
2023-01-12T16:17:10.616Z,50.56
2023-01-12T16:22:21.431Z,50.56
2023-01-12T16:27:26.745Z,50.53
2023-01-12T16:32:29.053Z,50.72
2023-01-12T16:37:33.694Z,51.16
2023-01-12T16:42:36.037Z,51.14
2023-01-12T16:47:38.800Z,51.21
2023-01-12T16:52:41.141Z,51.91
2023-01-12T16:57:43.515Z,52.35
2023-01-12T17:02:45.895Z,51.59
2023-01-12T17:07:49.268Z,52.42
2023-01-12T17:12:58.340Z,52.56
2023-01-12T17:18:03.461Z,53.25
2023-01-12T17:23:06.051Z,53.63
2023-01-12T17:28:08.656Z,53.02
2023-01-12T17:33:10.994Z,52.86
2023-01-12T17:38:13.290Z,53.76
2023-01-12T17:43:15.485Z,52.89
2023-01-12T17:48:20.646Z,52.73
2023-01-12T17:53:22.992Z,52.59
2023-01-12T17:58:25.119Z,52.10
2023-01-12T18:03:27.310Z,52.22
2023-01-12T18:08:29.593Z,52.00
2023-01-12T18:13:32.235Z,52.58
2023-01-12T18:18:34.608Z,52.34
2023-01-12T18:23:39.149Z,53.43
2023-01-12T18:28:42.366Z,53.17
2023-01-12T18:33:45.827Z,53.12
2023-01-12T18:38:49.896Z,52.90
2023-01-12T18:43:52.504Z,53.42
2023-01-12T18:48:54.756Z,53.04
2023-01-12T18:53:57.244Z,53.39
2023-01-12T18:58:59.362Z,53.20
2023-01-12T19:04:03.044Z,53.16
2023-01-12T19:09:23.837Z,52.60
2023-01-12T19:14:44.434Z,53.36
2023-01-12T19:19:46.616Z,53.11
2023-01-12T19:25:07.396Z,52.76
2023-01-12T19:30:10.650Z,53.34
2023-01-12T19:35:12.933Z,53.05
2023-01-12T19:40:47.721Z,53.24
2023-01-12T19:45:58.881Z,53.25
2023-01-12T19:51:09.495Z,53.59
2023-01-12T19:56:13.522Z,53.99
2023-01-12T20:01:23.460Z,53.57
2023-01-12T20:06:25.684Z,53.76
2023-01-12T20:11:28.048Z,54.06
2023-01-12T20:16:30.364Z,54.38
2023-01-12T20:21:32.511Z,54.58
2023-01-12T20:26:34.599Z,54.56
2023-01-12T20:31:36.807Z,54.26
2023-01-12T20:36:40.190Z,52.99
2023-01-12T20:41:43.545Z,52.73
2023-01-12T20:46:46.202Z,52.38
2023-01-12T20:51:49.853Z,52.10
2023-01-12T20:56:52.053Z,51.67
2023-01-12T21:01:54.192Z,52.03
2023-01-12T21:06:57.135Z,51.19
2023-01-12T21:11:59.416Z,51.42
2023-01-12T21:17:02.794Z,50.91
2023-01-12T21:22:04.911Z,51.48
2023-01-12T21:27:07.526Z,51.29
2023-01-12T21:32:09.697Z,51.37
2023-01-12T21:37:12.209Z,50.51
2023-01-12T21:42:33.509Z,50.33
2023-01-12T21:47:35.961Z,50.51
2023-01-12T21:52:38.192Z,50.78
2023-01-12T21:57:42.086Z,49.97
2023-01-12T22:02:44.322Z,50.52
2023-01-12T22:07:48.216Z,49.68
2023-01-12T22:12:54.366Z,49.83
2023-01-12T22:17:56.737Z,50.33
2023-01-12T22:22:58.897Z,50.48
2023-01-12T22:28:01.155Z,51.45
2023-01-12T22:33:03.291Z,50.23
2023-01-12T22:38:06.465Z,50.44
2023-01-12T22:43:28.528Z,50.08
2023-01-12T22:48:30.606Z,50.16
2023-01-12T22:53:33.163Z,50.55
2023-01-12T22:58:38.206Z,50.43
2023-01-12T23:03:40.348Z,50.36
2023-01-12T23:08:44.919Z,50.67
2023-01-12T23:13:47.342Z,50.36
2023-01-12T23:18:50.629Z,50.31
2023-01-12T23:23:54.791Z,50.71
2023-01-12T23:29:00.587Z,51.11
2023-01-12T23:34:02.910Z,51.27
2023-01-12T23:39:06.441Z,50.66
2023-01-12T23:44:10.232Z,50.72
2023-01-12T23:49:12.301Z,51.11
2023-01-12T23:54:17.613Z,50.79
2023-01-12T23:59:19.946Z,52.12
